sensor_id;sensor_type;location;lat;lon;timestamp;temperature;humidity
48535;DHT22;34323;52.022;5.686;2023-11-18T00:00:09;13.60;99.90
48535;DHT22;34323;52.022;5.686;2023-11-18T00:02:38;13.50;99.90
48535;DHT22;34323;52.022;5.686;2023-11-18T00:05:04;13.60;99.90
48535;DHT22;34323;52.022;5.686;2023-11-18T00:07:32;13.60;99.90
48535;DHT22;34323;52.022;5.686;2023-11-18T00:09:58;13.60;99.90
48535;DHT22;34323;52.022;5.686;2023-11-18T00:12:23;13.60;99.90
48535;DHT22;34323;52.022;5.686;2023-11-18T00:14:52;13.60;99.90
48535;DHT22;34323;52.022;5.686;2023-11-18T00:17:17;13.60;99.90
48535;DHT22;34323;52.022;5.686;2023-11-18T00:19:44;13.60;99.90
48535;DHT22;34323;52.022;5.686;2023-11-18T00:22:10;13.60;99.90
48535;DHT22;34323;52.022;5.686;2023-11-18T00:24:37;13.70;99.90
48535;DHT22;34323;52.022;5.686;2023-11-18T00:27:04;13.70;99.90
48535;DHT22;34323;52.022;5.686;2023-11-18T00:29:35;13.70;99.90
48535;DHT22;34323;52.022;5.686;2023-11-18T00:32:04;13.70;99.90
48535;DHT22;34323;52.022;5.686;2023-11-18T00:34:30;13.70;99.90
48535;DHT22;34323;52.022;5.686;2023-11-18T00:36:56;13.70;99.90
48535;DHT22;34323;52.022;5.686;2023-11-18T00:39:27;13.70;99.90
48535;DHT22;34323;52.022;5.686;2023-11-18T00:41:53;13.70;99.90
48535;DHT22;34323;52.022;5.686;2023-11-18T00:44:19;13.70;99.90
48535;DHT22;34323;52.022;5.686;2023-11-18T00:46:44;13.70;99.90
48535;DHT22;34323;52.022;5.686;2023-11-18T00:49:10;13.70;99.90
48535;DHT22;34323;52.022;5.686;2023-11-18T00:51:37;13.80;99.90
48535;DHT22;34323;52.022;5.686;2023-11-18T00:54:03;13.80;99.90
48535;DHT22;34323;52.022;5.686;2023-11-18T00:56:31;13.70;99.90
48535;DHT22;34323;52.022;5.686;2023-11-18T00:58:57;13.50;99.90
48535;DHT22;34323;52.022;5.686;2023-11-18T01:01:23;13.50;99.90
48535;DHT22;34323;52.022;5.686;2023-11-18T01:03:48;13.50;99.90
48535;DHT22;34323;52.022;5.686;2023-11-18T01:06:14;13.50;99.90
48535;DHT22;34323;52.022;5.686;2023-11-18T01:08:46;13.50;99.90
48535;DHT22;34323;52.022;5.686;2023-11-18T01:11:16;13.50;99.90
48535;DHT22;34323;52.022;5.686;2023-11-18T01:13:53;13.40;99.90
48535;DHT22;34323;52.022;5.686;2023-11-18T01:16:20;13.40;99.90
48535;DHT22;34323;52.022;5.686;2023-11-18T01:18:45;13.40;99.90
48535;DHT22;34323;52.022;5.686;2023-11-18T01:21:11;13.30;99.90
48535;DHT22;34323;52.022;5.686;2023-11-18T01:23:38;13.30;99.90
48535;DHT22;34323;52.022;5.686;2023-11-18T01:26:05;13.30;99.90
48535;DHT22;34323;52.022;5.686;2023-11-18T01:28:39;13.20;99.90
48535;DHT22;34323;52.022;5.686;2023-11-18T01:31:09;13.20;99.90
48535;DHT22;34323;52.022;5.686;2023-11-18T01:33:38;13.20;99.90
48535;DHT22;34323;52.022;5.686;2023-11-18T01:36:08;13.20;99.90
48535;DHT22;34323;52.022;5.686;2023-11-18T01:38:35;13.20;99.90
48535;DHT22;34323;52.022;5.686;2023-11-18T01:41:03;13.20;99.90
48535;DHT22;34323;52.022;5.686;2023-11-18T01:43:30;13.20;99.90
48535;DHT22;34323;52.022;5.686;2023-11-18T01:46:01;13.20;99.90
48535;DHT22;34323;52.022;5.686;2023-11-18T01:48:29;13.30;99.90
48535;DHT22;34323;52.022;5.686;2023-11-18T01:50:57;13.30;99.90
48535;DHT22;34323;52.022;5.686;2023-11-18T01:53:23;13.20;99.90
48535;DHT22;34323;52.022;5.686;2023-11-18T01:55:49;13.20;99.90
48535;DHT22;34323;52.022;5.686;2023-11-18T01:58:16;13.30;99.90
48535;DHT22;34323;52.022;5.686;2023-11-18T02:00:45;13.30;99.90
48535;DHT22;34323;52.022;5.686;2023-11-18T02:03:15;13.20;99.90
48535;DHT22;34323;52.022;5.686;2023-11-18T02:05:41;13.20;99.90
48535;DHT22;34323;52.022;5.686;2023-11-18T02:08:07;13.20;99.90
48535;DHT22;34323;52.022;5.686;2023-11-18T02:10:46;13.20;99.90
48535;DHT22;34323;52.022;5.686;2023-11-18T02:13:34;13.20;99.90
48535;DHT22;34323;52.022;5.686;2023-11-18T02:16:01;13.20;99.90
48535;DHT22;34323;52.022;5.686;2023-11-18T02:18:30;13.20;99.90
48535;DHT22;34323;52.022;5.686;2023-11-18T02:20:56;13.20;99.90
48535;DHT22;34323;52.022;5.686;2023-11-18T02:23:28;13.20;99.90
48535;DHT22;34323;52.022;5.686;2023-11-18T02:25:54;13.30;99.90
48535;DHT22;34323;52.022;5.686;2023-11-18T02:28:22;13.30;99.90
48535;DHT22;34323;52.022;5.686;2023-11-18T02:30:50;13.30;99.90
48535;DHT22;34323;52.022;5.686;2023-11-18T02:33:33;13.30;99.90
48535;DHT22;34323;52.022;5.686;2023-11-18T02:36:09;13.40;99.90
48535;DHT22;34323;52.022;5.686;2023-11-18T02:38:42;13.30;99.90
48535;DHT22;34323;52.022;5.686;2023-11-18T02:41:12;13.30;99.90
48535;DHT22;34323;52.022;5.686;2023-11-18T02:43:39;13.40;99.90
48535;DHT22;34323;52.022;5.686;2023-11-18T02:46:07;13.30;99.90
48535;DHT22;34323;52.022;5.686;2023-11-18T02:48:34;13.30;99.90
48535;DHT22;34323;52.022;5.686;2023-11-18T02:51:01;13.40;99.90
48535;DHT22;34323;52.022;5.686;2023-11-18T02:53:27;13.40;99.90
48535;DHT22;34323;52.022;5.686;2023-11-18T02:55:52;13.50;99.90
48535;DHT22;34323;52.022;5.686;2023-11-18T02:58:19;13.50;99.90
48535;DHT22;34323;52.022;5.686;2023-11-18T03:00:45;13.50;99.90
48535;DHT22;34323;52.022;5.686;2023-11-18T03:03:11;13.50;99.90
48535;DHT22;34323;52.022;5.686;2023-11-18T03:05:37;13.40;99.90
48535;DHT22;34323;52.022;5.686;2023-11-18T03:08:04;13.50;99.90
48535;DHT22;34323;52.022;5.686;2023-11-18T03:10:34;13.40;99.90
48535;DHT22;34323;52.022;5.686;2023-11-18T03:13:00;13.40;99.90
48535;DHT22;34323;52.022;5.686;2023-11-18T03:15:26;13.50;99.90
48535;DHT22;34323;52.022;5.686;2023-11-18T03:17:52;13.40;99.90
48535;DHT22;34323;52.022;5.686;2023-11-18T03:20:19;13.30;99.90
48535;DHT22;34323;52.022;5.686;2023-11-18T03:22:49;13.40;99.90
48535;DHT22;34323;52.022;5.686;2023-11-18T03:25:16;13.30;99.90
48535;DHT22;34323;52.022;5.686;2023-11-18T03:27:42;13.30;99.90
48535;DHT22;34323;52.022;5.686;2023-11-18T03:30:10;13.40;99.90
48535;DHT22;34323;52.022;5.686;2023-11-18T03:32:37;13.30;99.90
48535;DHT22;34323;52.022;5.686;2023-11-18T03:35:04;13.30;99.90
48535;DHT22;34323;52.022;5.686;2023-11-18T03:37:43;13.40;99.90
48535;DHT22;34323;52.022;5.686;2023-11-18T03:40:13;13.40;99.90
48535;DHT22;34323;52.022;5.686;2023-11-18T03:42:43;13.40;99.90
48535;DHT22;34323;52.022;5.686;2023-11-18T03:45:11;13.40;99.90
48535;DHT22;34323;52.022;5.686;2023-11-18T03:47:37;13.30;99.90
48535;DHT22;34323;52.022;5.686;2023-11-18T03:50:03;13.30;99.90
48535;DHT22;34323;52.022;5.686;2023-11-18T03:52:29;13.20;99.90
48535;DHT22;34323;52.022;5.686;2023-11-18T03:54:54;13.30;99.90
48535;DHT22;34323;52.022;5.686;2023-11-18T03:57:23;13.40;99.90
48535;DHT22;34323;52.022;5.686;2023-11-18T03:59:49;13.30;99.90
48535;DHT22;34323;52.022;5.686;2023-11-18T04:02:15;13.40;99.90
48535;DHT22;34323;52.022;5.686;2023-11-18T04:04:41;13.40;99.90
48535;DHT22;34323;52.022;5.686;2023-11-18T04:07:07;13.40;99.90
48535;DHT22;34323;52.022;5.686;2023-11-18T04:09:32;13.40;99.90
48535;DHT22;34323;52.022;5.686;2023-11-18T04:11:58;13.50;99.90
48535;DHT22;34323;52.022;5.686;2023-11-18T04:14:24;13.50;99.90
48535;DHT22;34323;52.022;5.686;2023-11-18T04:16:51;13.50;99.90
48535;DHT22;34323;52.022;5.686;2023-11-18T04:19:17;13.50;99.90
48535;DHT22;34323;52.022;5.686;2023-11-18T04:21:43;13.50;99.90
48535;DHT22;34323;52.022;5.686;2023-11-18T04:24:13;13.50;99.90
48535;DHT22;34323;52.022;5.686;2023-11-18T04:26:39;13.60;99.90
48535;DHT22;34323;52.022;5.686;2023-11-18T04:29:04;13.50;99.90
48535;DHT22;34323;52.022;5.686;2023-11-18T04:31:30;13.40;99.90
48535;DHT22;34323;52.022;5.686;2023-11-18T04:33:55;13.40;99.90
48535;DHT22;34323;52.022;5.686;2023-11-18T04:36:21;13.40;99.90
48535;DHT22;34323;52.022;5.686;2023-11-18T04:38:47;13.50;99.90
48535;DHT22;34323;52.022;5.686;2023-11-18T04:41:13;13.50;99.90
48535;DHT22;34323;52.022;5.686;2023-11-18T04:43:39;13.40;99.90
48535;DHT22;34323;52.022;5.686;2023-11-18T04:46:07;13.30;99.90
48535;DHT22;34323;52.022;5.686;2023-11-18T04:48:32;13.40;99.90
48535;DHT22;34323;52.022;5.686;2023-11-18T04:50:59;13.40;99.90
48535;DHT22;34323;52.022;5.686;2023-11-18T04:53:25;13.50;99.90
48535;DHT22;34323;52.022;5.686;2023-11-18T04:55:51;13.40;99.90
48535;DHT22;34323;52.022;5.686;2023-11-18T04:58:17;13.30;99.90
48535;DHT22;34323;52.022;5.686;2023-11-18T05:00:42;13.30;99.90
48535;DHT22;34323;52.022;5.686;2023-11-18T05:03:08;13.40;99.90
48535;DHT22;34323;52.022;5.686;2023-11-18T05:05:36;13.60;99.90
48535;DHT22;34323;52.022;5.686;2023-11-18T05:08:04;13.50;99.90
48535;DHT22;34323;52.022;5.686;2023-11-18T05:10:32;13.50;99.90
48535;DHT22;34323;52.022;5.686;2023-11-18T05:12:58;13.50;99.90
48535;DHT22;34323;52.022;5.686;2023-11-18T05:15:23;13.50;99.90
48535;DHT22;34323;52.022;5.686;2023-11-18T05:17:50;13.60;99.90
48535;DHT22;34323;52.022;5.686;2023-11-18T05:20:16;13.70;99.90
48535;DHT22;34323;52.022;5.686;2023-11-18T05:22:43;13.70;99.90
48535;DHT22;34323;52.022;5.686;2023-11-18T05:25:08;13.60;99.90
48535;DHT22;34323;52.022;5.686;2023-11-18T05:27:35;13.60;99.90
48535;DHT22;34323;52.022;5.686;2023-11-18T05:30:01;13.50;99.90
48535;DHT22;34323;52.022;5.686;2023-11-18T05:32:27;13.60;99.90
48535;DHT22;34323;52.022;5.686;2023-11-18T05:34:53;13.50;99.90
48535;DHT22;34323;52.022;5.686;2023-11-18T05:37:21;13.60;99.90
48535;DHT22;34323;52.022;5.686;2023-11-18T05:39:47;13.60;99.90
48535;DHT22;34323;52.022;5.686;2023-11-18T05:42:14;13.60;99.90
48535;DHT22;34323;52.022;5.686;2023-11-18T05:44:41;13.60;99.90
48535;DHT22;34323;52.022;5.686;2023-11-18T05:47:06;13.70;99.90
48535;DHT22;34323;52.022;5.686;2023-11-18T05:49:33;13.50;99.90
48535;DHT22;34323;52.022;5.686;2023-11-18T05:51:59;13.50;99.90
48535;DHT22;34323;52.022;5.686;2023-11-18T05:54:24;13.50;99.90
48535;DHT22;34323;52.022;5.686;2023-11-18T05:56:51;13.50;99.90
48535;DHT22;34323;52.022;5.686;2023-11-18T05:59:16;13.40;99.90
48535;DHT22;34323;52.022;5.686;2023-11-18T06:01:42;13.60;99.90
48535;DHT22;34323;52.022;5.686;2023-11-18T06:04:08;13.60;99.90
48535;DHT22;34323;52.022;5.686;2023-11-18T06:06:34;13.60;99.90
48535;DHT22;34323;52.022;5.686;2023-11-18T06:09:00;13.60;99.90
48535;DHT22;34323;52.022;5.686;2023-11-18T06:11:30;13.70;99.90
48535;DHT22;34323;52.022;5.686;2023-11-18T06:13:57;13.70;99.90
48535;DHT22;34323;52.022;5.686;2023-11-18T06:16:24;13.70;99.90
48535;DHT22;34323;52.022;5.686;2023-11-18T06:18:55;13.60;99.90
48535;DHT22;34323;52.022;5.686;2023-11-18T06:21:23;13.60;99.90
48535;DHT22;34323;52.022;5.686;2023-11-18T06:23:58;13.60;99.90
48535;DHT22;34323;52.022;5.686;2023-11-18T06:26:24;13.50;99.90
48535;DHT22;34323;52.022;5.686;2023-11-18T06:28:53;13.50;99.90
48535;DHT22;34323;52.022;5.686;2023-11-18T06:31:19;13.50;99.90
48535;DHT22;34323;52.022;5.686;2023-11-18T06:33:46;13.60;99.90
48535;DHT22;34323;52.022;5.686;2023-11-18T06:38:48;13.60;99.90
48535;DHT22;34323;52.022;5.686;2023-11-18T06:41:16;13.60;99.90
48535;DHT22;34323;52.022;5.686;2023-11-18T06:43:43;13.70;99.90
48535;DHT22;34323;52.022;5.686;2023-11-18T06:46:25;13.70;99.90
48535;DHT22;34323;52.022;5.686;2023-11-18T06:48:53;13.60;99.90
48535;DHT22;34323;52.022;5.686;2023-11-18T06:51:23;13.60;99.90
48535;DHT22;34323;52.022;5.686;2023-11-18T06:53:56;13.60;99.90
48535;DHT22;34323;52.022;5.686;2023-11-18T06:56:26;13.60;99.90
48535;DHT22;34323;52.022;5.686;2023-11-18T06:58:52;13.50;99.90
48535;DHT22;34323;52.022;5.686;2023-11-18T07:01:18;13.50;99.90
48535;DHT22;34323;52.022;5.686;2023-11-18T07:03:45;13.60;99.90
48535;DHT22;34323;52.022;5.686;2023-11-18T07:06:12;13.50;99.90
48535;DHT22;34323;52.022;5.686;2023-11-18T07:08:40;13.50;99.90
48535;DHT22;34323;52.022;5.686;2023-11-18T07:11:06;13.60;99.90
48535;DHT22;34323;52.022;5.686;2023-11-18T07:13:32;13.50;99.90
48535;DHT22;34323;52.022;5.686;2023-11-18T07:16:00;13.60;99.90
48535;DHT22;34323;52.022;5.686;2023-11-18T07:18:28;13.50;99.90
48535;DHT22;34323;52.022;5.686;2023-11-18T07:20:55;13.50;99.90
48535;DHT22;34323;52.022;5.686;2023-11-18T07:23:21;13.60;99.90
48535;DHT22;34323;52.022;5.686;2023-11-18T07:25:47;13.60;99.90
48535;DHT22;34323;52.022;5.686;2023-11-18T07:28:13;13.50;99.90
48535;DHT22;34323;52.022;5.686;2023-11-18T07:30:45;13.60;99.90
48535;DHT22;34323;52.022;5.686;2023-11-18T07:33:19;13.60;99.90
48535;DHT22;34323;52.022;5.686;2023-11-18T07:35:47;13.60;99.90
48535;DHT22;34323;52.022;5.686;2023-11-18T07:38:16;13.60;99.90
48535;DHT22;34323;52.022;5.686;2023-11-18T07:40:42;13.70;99.90
48535;DHT22;34323;52.022;5.686;2023-11-18T07:43:12;13.70;99.90
48535;DHT22;34323;52.022;5.686;2023-11-18T07:45:38;13.70;99.90
48535;DHT22;34323;52.022;5.686;2023-11-18T07:48:09;13.80;99.90
48535;DHT22;34323;52.022;5.686;2023-11-18T07:50:36;13.80;99.90
48535;DHT22;34323;52.022;5.686;2023-11-18T07:53:02;13.80;99.90
48535;DHT22;34323;52.022;5.686;2023-11-18T07:55:28;13.80;99.90
48535;DHT22;34323;52.022;5.686;2023-11-18T07:57:54;13.80;99.90
48535;DHT22;34323;52.022;5.686;2023-11-18T08:00:20;13.80;99.90
48535;DHT22;34323;52.022;5.686;2023-11-18T08:02:46;13.80;99.90
48535;DHT22;34323;52.022;5.686;2023-11-18T08:05:12;13.70;99.90
48535;DHT22;34323;52.022;5.686;2023-11-18T08:07:43;13.70;99.90
48535;DHT22;34323;52.022;5.686;2023-11-18T08:10:10;13.70;99.90
48535;DHT22;34323;52.022;5.686;2023-11-18T08:12:39;13.70;99.90
48535;DHT22;34323;52.022;5.686;2023-11-18T08:15:05;13.70;99.90
48535;DHT22;34323;52.022;5.686;2023-11-18T08:17:35;13.70;99.90
48535;DHT22;34323;52.022;5.686;2023-11-18T08:20:01;13.80;99.90
48535;DHT22;34323;52.022;5.686;2023-11-18T08:22:32;13.80;99.90
48535;DHT22;34323;52.022;5.686;2023-11-18T08:24:57;13.90;99.90
48535;DHT22;34323;52.022;5.686;2023-11-18T08:27:24;13.80;99.90
48535;DHT22;34323;52.022;5.686;2023-11-18T08:29:50;13.80;99.90
48535;DHT22;34323;52.022;5.686;2023-11-18T08:32:15;13.90;99.90
48535;DHT22;34323;52.022;5.686;2023-11-18T08:34:41;13.80;99.90
48535;DHT22;34323;52.022;5.686;2023-11-18T08:37:07;13.70;99.90
48535;DHT22;34323;52.022;5.686;2023-11-18T08:39:33;13.60;99.90
48535;DHT22;34323;52.022;5.686;2023-11-18T08:41:58;13.80;99.90
48535;DHT22;34323;52.022;5.686;2023-11-18T08:44:24;13.80;99.90
48535;DHT22;34323;52.022;5.686;2023-11-18T08:46:54;13.70;99.90
48535;DHT22;34323;52.022;5.686;2023-11-18T08:49:23;13.70;99.90
48535;DHT22;34323;52.022;5.686;2023-11-18T08:51:48;13.80;99.90
48535;DHT22;34323;52.022;5.686;2023-11-18T08:54:16;13.80;99.90
48535;DHT22;34323;52.022;5.686;2023-11-18T08:56:53;13.80;99.90
48535;DHT22;34323;52.022;5.686;2023-11-18T08:59:20;13.70;99.90
48535;DHT22;34323;52.022;5.686;2023-11-18T09:01:51;13.70;99.90
48535;DHT22;34323;52.022;5.686;2023-11-18T09:04:23;13.80;99.90
48535;DHT22;34323;52.022;5.686;2023-11-18T09:06:50;13.80;99.90
48535;DHT22;34323;52.022;5.686;2023-11-18T09:09:20;13.90;99.90
48535;DHT22;34323;52.022;5.686;2023-11-18T09:11:53;13.80;99.90
48535;DHT22;34323;52.022;5.686;2023-11-18T09:14:19;13.80;99.90
48535;DHT22;34323;52.022;5.686;2023-11-18T09:16:45;14.00;99.90
48535;DHT22;34323;52.022;5.686;2023-11-18T09:19:11;13.90;99.90
48535;DHT22;34323;52.022;5.686;2023-11-18T09:21:36;14.00;99.90
48535;DHT22;34323;52.022;5.686;2023-11-18T09:24:02;14.00;99.90
48535;DHT22;34323;52.022;5.686;2023-11-18T09:26:33;13.90;99.90
48535;DHT22;34323;52.022;5.686;2023-11-18T09:29:00;14.00;99.90
48535;DHT22;34323;52.022;5.686;2023-11-18T09:31:27;14.10;99.90
48535;DHT22;34323;52.022;5.686;2023-11-18T09:33:52;14.10;99.90
48535;DHT22;34323;52.022;5.686;2023-11-18T09:36:19;13.90;99.90
48535;DHT22;34323;52.022;5.686;2023-11-18T09:38:45;13.90;99.90
48535;DHT22;34323;52.022;5.686;2023-11-18T09:41:15;14.10;99.90
48535;DHT22;34323;52.022;5.686;2023-11-18T09:43:43;14.00;99.90
48535;DHT22;34323;52.022;5.686;2023-11-18T09:46:16;14.20;99.90
48535;DHT22;34323;52.022;5.686;2023-11-18T09:51:15;14.20;99.90
48535;DHT22;34323;52.022;5.686;2023-11-18T09:53:44;14.20;99.90
48535;DHT22;34323;52.022;5.686;2023-11-18T09:56:19;14.10;99.90
48535;DHT22;34323;52.022;5.686;2023-11-18T09:59:01;14.00;99.90
48535;DHT22;34323;52.022;5.686;2023-11-18T10:01:35;14.00;99.90
48535;DHT22;34323;52.022;5.686;2023-11-18T10:04:04;14.00;99.90
48535;DHT22;34323;52.022;5.686;2023-11-18T10:06:35;13.90;99.90
48535;DHT22;34323;52.022;5.686;2023-11-18T10:09:02;14.00;99.90
48535;DHT22;34323;52.022;5.686;2023-11-18T10:11:42;13.90;99.90
48535;DHT22;34323;52.022;5.686;2023-11-18T10:14:08;13.90;99.90
48535;DHT22;34323;52.022;5.686;2023-11-18T10:16:34;14.10;99.90
48535;DHT22;34323;52.022;5.686;2023-11-18T10:19:03;14.20;99.90
48535;DHT22;34323;52.022;5.686;2023-11-18T10:21:37;14.20;99.90
48535;DHT22;34323;52.022;5.686;2023-11-18T10:24:06;14.00;99.90
48535;DHT22;34323;52.022;5.686;2023-11-18T10:26:46;14.10;99.90
48535;DHT22;34323;52.022;5.686;2023-11-18T10:29:19;14.10;99.90
48535;DHT22;34323;52.022;5.686;2023-11-18T10:31:45;14.10;99.90
48535;DHT22;34323;52.022;5.686;2023-11-18T10:34:14;14.20;99.90
48535;DHT22;34323;52.022;5.686;2023-11-18T10:37:04;14.30;99.90
48535;DHT22;34323;52.022;5.686;2023-11-18T10:39:32;14.30;99.90
48535;DHT22;34323;52.022;5.686;2023-11-18T10:42:01;14.40;99.90
48535;DHT22;34323;52.022;5.686;2023-11-18T10:44:27;14.40;99.90
48535;DHT22;34323;52.022;5.686;2023-11-18T10:46:55;14.50;99.90
48535;DHT22;34323;52.022;5.686;2023-11-18T10:49:28;14.30;99.90
48535;DHT22;34323;52.022;5.686;2023-11-18T10:51:55;14.30;99.90
48535;DHT22;34323;52.022;5.686;2023-11-18T10:54:22;14.40;99.90
48535;DHT22;34323;52.022;5.686;2023-11-18T10:56:49;14.40;99.90
48535;DHT22;34323;52.022;5.686;2023-11-18T10:59:15;14.40;99.90
48535;DHT22;34323;52.022;5.686;2023-11-18T11:01:43;14.30;99.90
48535;DHT22;34323;52.022;5.686;2023-11-18T11:04:14;14.30;99.90
48535;DHT22;34323;52.022;5.686;2023-11-18T11:06:47;14.20;99.90
48535;DHT22;34323;52.022;5.686;2023-11-18T11:09:23;14.20;99.90
48535;DHT22;34323;52.022;5.686;2023-11-18T11:12:07;14.20;99.90
48535;DHT22;34323;52.022;5.686;2023-11-18T11:14:46;14.30;99.90
48535;DHT22;34323;52.022;5.686;2023-11-18T11:17:17;14.20;99.90
48535;DHT22;34323;52.022;5.686;2023-11-18T11:20:03;14.10;99.90
48535;DHT22;34323;52.022;5.686;2023-11-18T11:25:36;14.30;99.90
48535;DHT22;34323;52.022;5.686;2023-11-18T11:33:33;14.20;99.90
48535;DHT22;34323;52.022;5.686;2023-11-18T11:36:07;14.20;99.90
48535;DHT22;34323;52.022;5.686;2023-11-18T11:38:37;14.20;99.90
48535;DHT22;34323;52.022;5.686;2023-11-18T11:41:06;14.30;99.90
48535;DHT22;34323;52.022;5.686;2023-11-18T11:43:35;14.10;99.90
48535;DHT22;34323;52.022;5.686;2023-11-18T11:46:01;14.10;99.90
48535;DHT22;34323;52.022;5.686;2023-11-18T11:48:35;14.00;99.90
48535;DHT22;34323;52.022;5.686;2023-11-18T11:51:25;14.10;99.90
48535;DHT22;34323;52.022;5.686;2023-11-18T11:56:46;14.10;99.90
48535;DHT22;34323;52.022;5.686;2023-11-18T11:59:15;14.10;99.90
48535;DHT22;34323;52.022;5.686;2023-11-18T12:01:41;14.10;99.90
48535;DHT22;34323;52.022;5.686;2023-11-18T12:04:15;14.00;99.90
48535;DHT22;34323;52.022;5.686;2023-11-18T12:06:48;14.00;99.90
48535;DHT22;34323;52.022;5.686;2023-11-18T12:09:19;14.00;99.90
48535;DHT22;34323;52.022;5.686;2023-11-18T12:11:46;13.90;99.90
48535;DHT22;34323;52.022;5.686;2023-11-18T12:14:16;13.90;99.90
48535;DHT22;34323;52.022;5.686;2023-11-18T12:17:09;14.00;99.90
48535;DHT22;34323;52.022;5.686;2023-11-18T12:19:36;14.10;99.90
48535;DHT22;34323;52.022;5.686;2023-11-18T12:22:10;14.10;99.90
48535;DHT22;34323;52.022;5.686;2023-11-18T12:24:44;14.20;99.90
48535;DHT22;34323;52.022;5.686;2023-11-18T12:27:09;14.30;99.90
48535;DHT22;34323;52.022;5.686;2023-11-18T12:29:42;14.30;99.90
48535;DHT22;34323;52.022;5.686;2023-11-18T12:32:11;14.40;99.90
48535;DHT22;34323;52.022;5.686;2023-11-18T12:34:52;14.30;99.90
48535;DHT22;34323;52.022;5.686;2023-11-18T12:37:50;14.00;99.90
48535;DHT22;34323;52.022;5.686;2023-11-18T12:40:37;14.00;99.90
48535;DHT22;34323;52.022;5.686;2023-11-18T12:43:15;14.00;99.90
48535;DHT22;34323;52.022;5.686;2023-11-18T12:46:07;14.00;99.90
48535;DHT22;34323;52.022;5.686;2023-11-18T12:48:43;14.00;99.90
48535;DHT22;34323;52.022;5.686;2023-11-18T12:51:10;14.10;99.90
48535;DHT22;34323;52.022;5.686;2023-11-18T12:53:47;14.10;99.90
48535;DHT22;34323;52.022;5.686;2023-11-18T12:56:24;14.10;99.90
48535;DHT22;34323;52.022;5.686;2023-11-18T12:58:50;14.20;99.90
48535;DHT22;34323;52.022;5.686;2023-11-18T13:01:16;14.20;99.90
48535;DHT22;34323;52.022;5.686;2023-11-18T13:03:42;14.30;99.90
48535;DHT22;34323;52.022;5.686;2023-11-18T13:06:09;14.20;99.90
48535;DHT22;34323;52.022;5.686;2023-11-18T13:08:38;14.40;99.90
48535;DHT22;34323;52.022;5.686;2023-11-18T13:11:04;14.40;99.90
48535;DHT22;34323;52.022;5.686;2023-11-18T13:13:37;14.40;99.90
48535;DHT22;34323;52.022;5.686;2023-11-18T13:16:03;14.20;99.90
48535;DHT22;34323;52.022;5.686;2023-11-18T13:18:41;14.30;99.90
48535;DHT22;34323;52.022;5.686;2023-11-18T13:21:07;14.30;99.90
48535;DHT22;34323;52.022;5.686;2023-11-18T13:23:36;14.20;99.90
48535;DHT22;34323;52.022;5.686;2023-11-18T13:26:02;14.10;99.90
48535;DHT22;34323;52.022;5.686;2023-11-18T13:28:32;14.10;99.90
48535;DHT22;34323;52.022;5.686;2023-11-18T13:30:57;14.10;99.90
48535;DHT22;34323;52.022;5.686;2023-11-18T13:33:23;14.10;99.90
48535;DHT22;34323;52.022;5.686;2023-11-18T13:35:49;14.10;99.90
48535;DHT22;34323;52.022;5.686;2023-11-18T13:38:15;14.20;99.90
48535;DHT22;34323;52.022;5.686;2023-11-18T13:40:47;14.10;99.90
48535;DHT22;34323;52.022;5.686;2023-11-18T13:43:13;14.00;99.90
48535;DHT22;34323;52.022;5.686;2023-11-18T13:45:40;13.90;99.90
48535;DHT22;34323;52.022;5.686;2023-11-18T13:48:06;13.90;99.90
48535;DHT22;34323;52.022;5.686;2023-11-18T13:50:34;13.80;99.90
48535;DHT22;34323;52.022;5.686;2023-11-18T13:53:03;13.80;99.90
48535;DHT22;34323;52.022;5.686;2023-11-18T13:55:31;13.80;99.90
48535;DHT22;34323;52.022;5.686;2023-11-18T13:57:57;13.80;99.90
48535;DHT22;34323;52.022;5.686;2023-11-18T14:00:28;13.80;99.90
48535;DHT22;34323;52.022;5.686;2023-11-18T14:02:55;13.90;99.90
48535;DHT22;34323;52.022;5.686;2023-11-18T14:05:22;13.90;99.90
48535;DHT22;34323;52.022;5.686;2023-11-18T14:07:51;14.10;99.90
48535;DHT22;34323;52.022;5.686;2023-11-18T14:10:18;14.20;99.90
48535;DHT22;34323;52.022;5.686;2023-11-18T14:13:04;14.20;99.90
48535;DHT22;34323;52.022;5.686;2023-11-18T14:15:38;14.30;99.90
48535;DHT22;34323;52.022;5.686;2023-11-18T14:18:04;14.20;99.90
48535;DHT22;34323;52.022;5.686;2023-11-18T14:20:30;14.20;99.90
48535;DHT22;34323;52.022;5.686;2023-11-18T14:22:57;14.20;99.90
48535;DHT22;34323;52.022;5.686;2023-11-18T14:25:24;14.30;99.90
48535;DHT22;34323;52.022;5.686;2023-11-18T14:27:50;14.30;99.90
48535;DHT22;34323;52.022;5.686;2023-11-18T14:30:16;14.40;99.90
48535;DHT22;34323;52.022;5.686;2023-11-18T14:32:43;14.40;99.90
48535;DHT22;34323;52.022;5.686;2023-11-18T14:35:08;14.50;99.90
48535;DHT22;34323;52.022;5.686;2023-11-18T14:37:39;14.40;99.90
48535;DHT22;34323;52.022;5.686;2023-11-18T14:40:13;14.50;99.90
48535;DHT22;34323;52.022;5.686;2023-11-18T14:42:43;14.30;99.90
48535;DHT22;34323;52.022;5.686;2023-11-18T14:45:09;14.10;99.90
48535;DHT22;34323;52.022;5.686;2023-11-18T14:47:36;14.20;99.90
48535;DHT22;34323;52.022;5.686;2023-11-18T14:50:02;14.40;99.90
48535;DHT22;34323;52.022;5.686;2023-11-18T14:52:28;14.30;99.90
48535;DHT22;34323;52.022;5.686;2023-11-18T14:54:54;14.40;99.90
48535;DHT22;34323;52.022;5.686;2023-11-18T14:57:20;14.40;99.90
48535;DHT22;34323;52.022;5.686;2023-11-18T14:59:45;14.40;99.90
48535;DHT22;34323;52.022;5.686;2023-11-18T15:02:11;14.40;99.90
48535;DHT22;34323;52.022;5.686;2023-11-18T15:04:37;14.30;99.90
48535;DHT22;34323;52.022;5.686;2023-11-18T15:07:03;14.20;99.90
48535;DHT22;34323;52.022;5.686;2023-11-18T15:09:29;14.20;99.90
48535;DHT22;34323;52.022;5.686;2023-11-18T15:11:57;14.10;99.90
48535;DHT22;34323;52.022;5.686;2023-11-18T15:14:24;14.20;99.90
48535;DHT22;34323;52.022;5.686;2023-11-18T15:16:54;14.20;99.90
48535;DHT22;34323;52.022;5.686;2023-11-18T15:19:19;14.40;99.90
48535;DHT22;34323;52.022;5.686;2023-11-18T15:21:45;14.30;99.90
48535;DHT22;34323;52.022;5.686;2023-11-18T15:24:11;14.50;99.90
48535;DHT22;34323;52.022;5.686;2023-11-18T15:26:39;14.40;99.90
48535;DHT22;34323;52.022;5.686;2023-11-18T15:29:05;14.50;99.90
48535;DHT22;34323;52.022;5.686;2023-11-18T15:31:40;14.60;99.90
48535;DHT22;34323;52.022;5.686;2023-11-18T15:34:05;14.40;99.90
48535;DHT22;34323;52.022;5.686;2023-11-18T15:36:31;14.30;99.90
48535;DHT22;34323;52.022;5.686;2023-11-18T15:38:57;14.30;99.90
48535;DHT22;34323;52.022;5.686;2023-11-18T15:41:31;14.40;99.90
48535;DHT22;34323;52.022;5.686;2023-11-18T15:43:58;14.60;99.90
48535;DHT22;34323;52.022;5.686;2023-11-18T15:46:24;14.70;99.90
48535;DHT22;34323;52.022;5.686;2023-11-18T15:48:49;14.80;99.90
48535;DHT22;34323;52.022;5.686;2023-11-18T15:51:15;14.80;99.90
48535;DHT22;34323;52.022;5.686;2023-11-18T15:53:42;14.80;99.90